MET7781 - Keflavik to Boston

Airbus A321-232
665MT - Sharklet Equipped
5 hrs 00 mins
2094 nm
Ferry - M

Departure

Departing from
Keflavik (KEF)
Departure gate
Ramp
Scheduled Departure
GMT 1100
Local 1100
METAR BIKF 161230Z 22030G43KT 0800 R19/P1500D -SHSN SCT023CB BKN044 M01/M01 Q1005 R19/720052
TAF TAF BIKF 161023Z 1612/1712 23025G35KT 9999 SHSN SCT020 BKN030 TX01/1612Z TNM01/1703Z TEMPO 1612/1709 23030G45KT 2000 SHSNGS BKN010CB
  • No charts available

Arrival

Arriving at
Boston (BOS)
Arrival gate
Scheduled Arrival
GMT 1600
Local 1100
METAR KBOS 161154Z 00000KT 10SM CLR M04/M09 A3044 RMK AO2 SLP305 T10441094 11028 21050 55001 $
TAF KBOS 161120Z 1612/1718 23007KT P6SM SKC FM171100 29004KT P6SM SCT250 FM171400 35005KT P6SM SCT200 FM171700 06005KT P6SM BKN150

Route Map

Planning Resources

EMBLA 60/40 59/50 PRAWN TDP YQB PLB LAMED J6 SAX J77 PENSY CSN.OTT6
EMBL1B EMBLA 6331N 6237N 6141N 6044N 5947N 5850N 5752N 5654N 5556N VALIE TAFFY PQI J55 ENE Q480 BAF J77 PTW PPM HURTZ
VESTUR1A VANDA STEAM N149B TOPPS J581 ENE J55 PVD J225 JFK J79 VILLS PPM
KEF4F NN FOXXE N27OB YBC N272C YSC J563 ALB J6 BWZ J77 SHILO
KEF4F DCT YDP J583 YWK J561 YBC J563 ALB J6 PWT
Route:
OFP Layout:
Units:
Detailed Navlog:
ETOPS Planning:
Plan Stepclimbs:
Runway Analysis:
Include NOTAMS:
FIR NOTAMS:
Flight Maps:

Return Flights

MET41
Boeing 757-200W
0300 GMT

Popularity

Hub Current Bids PiReps this month Total PiReps
KMCI 0 1 1
KLAX 0 0 0
KBOS 0 0 0